Time;durP1;ratioP1;P1;durP2;ratioP2;P2;SDS_P1;SDS_P2;PMS_P1;PMS_P2;Temp;Humidity;BMP_temperature;BMP_pressure;BME280_temperature;BME280_humidity;BME280_pressure;Samples;Min_cycle;Max_cycle;Signal;HPM_P1;HPM_P2
2022/11/27 00:01:37;;;;;;;78.43;29.48;;;;;;;4.47;100.00;124799.13;4957576;28;20030;-77
2022/11/27 00:04:04;;;;;;;78.40;29.05;;;;;;;4.40;100.00;126123.50;4969034;28;20046;-80
2022/11/27 00:06:31;;;;;;;73.53;27.60;;;;;;;4.41;100.00;126793.66;4966801;28;20050;-79
2022/11/27 00:08:58;;;;;;;78.25;27.80;;;;;;;4.35;100.00;128454.03;4970981;28;20039;-77
2022/11/27 00:11:25;;;;;;;78.18;27.95;;;;;;;4.31;100.00;130120.19;4981988;28;20031;-78
2022/11/27 00:13:51;;;;;;;74.72;27.90;;;;;;;4.29;100.00;131791.19;4969021;28;20420;-78
2022/11/27 00:16:19;;;;;;;72.68;25.63;;;;;;;4.33;100.00;133472.72;4955487;28;20030;-77
2022/11/27 00:18:44;;;;;;;81.20;28.25;;;;;;;4.32;100.00;134812.09;4972538;28;20082;-77
2022/11/27 00:21:13;;;;;;;65.45;26.15;;;;;;;4.24;100.00;136806.59;4954140;28;20038;-76
2022/11/27 00:23:39;;;;;;;69.75;27.08;;;;;;;4.19;100.00;139477.09;4982152;28;20027;-75
2022/11/27 00:26:06;;;;;;;62.60;24.63;;;;;;;4.05;100.00;143136.88;4972956;28;20125;-76
2022/11/27 00:28:33;;;;;;;66.43;24.90;;;;;;;3.90;100.00;146156.81;4956563;28;20044;-78
2022/11/27 00:31:01;;;;;;;52.40;23.23;;;;;;;3.81;100.00;149931.78;4969888;28;20065;-79
2022/11/27 00:33:27;;;;;;;56.97;22.65;;;;;;;3.65;100.00;152387.88;4988990;28;20501;-76
2022/11/27 00:35:52;;;;;;;50.53;22.73;;;;;;;3.62;100.00;153446.88;4987702;28;20058;-77
2022/11/27 00:38:19;;;;;;;51.65;21.70;;;;;;;3.53;100.00;153423.88;4972080;28;20412;-76
2022/11/27 00:40:45;;;;;;;52.72;22.15;;;;;;;3.45;100.00;153406.00;4972931;28;20097;-78
2022/11/27 00:43:12;;;;;;;69.97;25.13;;;;;;;3.57;100.00;153435.34;5003171;28;20638;-77
2022/11/27 00:45:37;;;;;;;63.33;24.48;;;;;;;3.65;100.00;153455.75;4974208;28;20066;-77
2022/11/27 00:48:03;;;;;;;73.88;23.90;;;;;;;3.71;100.00;153469.81;4971972;28;20042;-77
2022/11/27 00:50:30;;;;;;;67.40;25.25;;;;;;;3.83;100.00;153499.22;4973146;28;20030;-79
2022/11/27 00:53:00;;;;;;;72.22;26.15;;;;;;;3.90;100.00;153517.13;4967730;28;20061;-75
2022/11/27 00:55:26;;;;;;;76.63;25.27;;;;;;;3.93;100.00;153524.75;4968572;28;20555;-78
2022/11/27 00:57:51;;;;;;;65.97;24.50;;;;;;;3.98;100.00;153536.25;4971593;28;20544;-77
2022/11/27 01:00:17;;;;;;;80.00;26.10;;;;;;;4.00;100.00;153542.63;4971323;28;20046;-78
2022/11/27 01:02:44;;;;;;;72.80;25.73;;;;;;;4.04;100.00;153534.44;4978621;28;20069;-77
2022/11/27 01:05:09;;;;;;;75.85;26.58;;;;;;;4.07;100.00;153377.84;4973437;28;20089;-76
2022/11/27 01:07:35;;;;;;;71.03;25.00;;;;;;;4.07;100.00;153078.13;4987961;28;20046;-78
2022/11/27 01:10:00;;;;;;;69.65;25.20;;;;;;;4.04;100.00;153147.97;4987757;28;20039;-77
2022/11/27 01:12:26;;;;;;;62.10;24.67;;;;;;;4.01;100.00;153212.66;4992018;28;20119;-78
2022/11/27 01:14:51;;;;;;;59.67;23.25;;;;;;;3.97;100.00;153386.47;4977691;28;20062;-78
2022/11/27 01:17:17;;;;;;;74.95;25.90;;;;;;;3.96;100.00;153178.91;4981198;28;20058;-78
2022/11/27 01:19:42;;;;;;;62.00;24.38;;;;;;;3.85;100.00;153454.38;4977999;28;20037;-78
2022/11/27 01:22:08;;;;;;;58.65;23.27;;;;;;;3.70;100.00;153468.56;4959456;28;20120;-77
2022/11/27 01:24:34;;;;;;;67.43;25.27;;;;;;;3.59;100.00;153440.47;4991535;28;20022;-78
2022/11/27 01:26:59;;;;;;;60.22;22.55;;;;;;;3.51;100.00;153420.03;4964783;28;20041;-77
2022/11/27 01:29:25;;;;;;;56.65;21.60;;;;;;;3.30;100.00;153368.97;4973730;28;20070;-77
2022/11/27 01:31:50;;;;;;;60.90;21.88;;;;;;;3.27;100.00;153361.28;4956446;28;20076;-78
2022/11/27 01:34:17;;;;;;;44.88;20.05;;;;;;;3.19;100.00;153340.88;4984613;28;20448;-76
2022/11/27 01:36:42;;;;;;;53.60;20.00;;;;;;;3.12;100.00;153323.00;4977331;28;20070;-78
2022/11/27 01:39:14;;;;;;;44.13;19.25;;;;;;;3.02;100.00;153297.50;4978831;28;20034;-76
2022/11/27 01:41:40;;;;;;;41.15;19.30;;;;;;;2.97;100.00;153284.72;4977806;28;20038;-77
2022/11/27 01:44:24;;;;;;;43.80;19.10;;;;;;;2.91;100.00;153271.94;5011903;28;20031;-77
2022/11/27 01:46:55;;;;;;;47.17;18.42;;;;;;;2.85;100.00;153255.38;4996110;28;20057;-77
2022/11/27 01:49:31;;;;;;;40.70;18.05;;;;;;;2.77;100.00;153234.94;4986325;28;20054;-78
2022/11/27 01:52:01;;;;;;;43.40;19.42;;;;;;;2.80;100.00;153242.59;4983468;28;20093;-79
2022/11/27 01:54:33;;;;;;;54.55;22.20;;;;;;;2.74;100.00;153228.56;4976768;28;20034;-79
2022/11/27 01:57:05;;;;;;;58.13;21.58;;;;;;;2.68;100.00;153214.53;4975586;28;20050;-77
2022/11/27 01:59:31;;;;;;;55.65;20.65;;;;;;;2.64;100.00;153204.31;4977996;28;20034;-76
2022/11/27 02:01:57;;;;;;;57.90;21.58;;;;;;;2.60;100.00;153192.81;4991891;28;20042;-77
2022/11/27 02:04:22;;;;;;;50.75;21.20;;;;;;;2.59;100.00;153191.56;4975031;28;20041;-78
2022/11/27 02:06:48;;;;;;;51.97;22.00;;;;;;;2.56;100.00;153183.88;4992352;28;20034;-79
2022/11/27 02:09:13;;;;;;;56.40;21.63;;;;;;;2.55;100.00;153181.34;4991733;28;20034;-76
2022/11/27 02:12:17;;;;;;;60.08;22.50;;;;;;;2.48;100.00;153163.47;4982604;28;20037;-76
2022/11/27 02:14:59;;;;;;;54.75;21.85;;;;;;;2.43;100.00;153152.03;4981764;28;20117;-77
2022/11/27 02:17:37;;;;;;;60.08;21.20;;;;;;;2.43;100.00;153152.03;4974809;28;20042;-78
2022/11/27 02:20:21;;;;;;;55.30;21.85;;;;;;;2.38;100.00;153139.25;4988850;28;20053;-78
2022/11/27 02:22:57;;;;;;;61.63;21.05;;;;;;;2.32;100.00;153123.94;4976316;28;20038;-80
2022/11/27 02:25:33;;;;;;;38.20;18.45;;;;;;;2.25;100.00;153107.34;4993313;28;20516;-77
2022/11/27 02:28:17;;;;;;;45.45;19.17;;;;;;;2.15;100.00;153081.84;4964657;28;20634;-78
2022/11/27 02:30:50;;;;;;;44.22;19.38;;;;;;;2.10;100.00;153069.09;4971090;28;20041;-78
2022/11/27 02:33:19;;;;;;;45.13;19.50;;;;;;;2.08;100.00;153064.00;4972348;28;20081;-78
2022/11/27 02:35:55;;;;;;;62.92;23.10;;;;;;;2.19;100.00;153092.06;4985079;28;20049;-77
2022/11/27 02:38:30;;;;;;;50.45;21.77;;;;;;;2.15;100.00;153081.84;4973115;28;20043;-77
2022/11/27 02:41:16;;;;;;;56.90;21.83;;;;;;;2.17;100.00;153085.63;4981599;28;20048;-79
2022/11/27 02:43:47;;;;;;;58.80;23.25;;;;;;;2.25;100.00;153106.09;4968216;28;20033;-79
2022/11/27 02:46:15;;;;;;;57.22;21.98;;;;;;;2.24;100.00;153103.50;4984370;28;20101;-76
2022/11/27 02:48:51;;;;;;;59.55;22.30;;;;;;;2.19;100.00;153092.06;4985739;28;20082;-76
2022/11/27 02:51:21;;;;;;;60.20;22.95;;;;;;;2.18;100.00;153089.47;4987717;28;20060;-76
2022/11/27 02:53:53;;;;;;;54.30;23.02;;;;;;;2.23;100.00;153102.25;4981694;28;20066;-79
2022/11/27 02:56:28;;;;;;;58.33;22.02;;;;;;;2.12;100.00;153075.44;4974596;28;20054;-77
2022/11/27 02:58:57;;;;;;;62.42;24.63;;;;;;;2.28;100.00;153113.72;4974996;28;20066;-77
2022/11/27 03:01:26;;;;;;;52.40;23.33;;;;;;;2.35;100.00;153131.56;4982528;28;20097;-79
2022/11/27 03:03:55;;;;;;;60.35;24.05;;;;;;;2.34;100.00;153129.06;4992005;28;20092;-78
2022/11/27 03:06:30;;;;;;;61.72;23.10;;;;;;;2.27;100.00;153112.44;4985931;28;20080;-77
2022/11/27 03:09:00;;;;;;;52.92;21.60;;;;;;;2.25;100.00;153106.09;4988284;28;20042;-77
2022/11/27 03:11:29;;;;;;;51.72;21.13;;;;;;;2.26;100.00;153108.59;4972763;28;20517;-77
2022/11/27 03:13:59;;;;;;;45.75;20.50;;;;;;;2.11;100.00;153071.59;4972124;28;20044;-79
2022/11/27 03:16:41;;;;;;;59.72;22.08;;;;;;;2.01;100.00;153046.13;4972536;28;20065;-78
2022/11/27 03:19:16;;;;;;;46.28;19.40;;;;;;;1.92;100.00;153025.72;4971818;28;20042;-76
2022/11/27 03:21:55;;;;;;;42.13;18.48;;;;;;;1.84;100.00;153004.03;4953813;28;20039;-77
2022/11/27 03:24:20;;;;;;;49.00;18.88;;;;;;;1.75;100.00;152982.34;4964287;28;20085;-76
2022/11/27 03:26:47;;;;;;;41.65;18.92;;;;;;;1.71;100.00;152973.44;4987100;28;20038;-75
2022/11/27 03:29:34;;;;;;;40.58;18.55;;;;;;;1.64;100.00;152955.59;4986238;28;20041;-78
2022/11/27 03:32:00;;;;;;;43.85;18.90;;;;;;;1.63;100.00;152953.03;4975872;28;20034;-76
2022/11/27 03:34:26;;;;;;;40.95;18.83;;;;;;;1.59;100.00;152941.56;4958480;28;20480;-77
2022/11/27 03:36:52;;;;;;;45.00;19.52;;;;;;;1.56;100.00;152935.16;4971534;28;20050;-76
2022/11/27 03:39:19;;;;;;;35.80;18.90;;;;;;;1.59;100.00;152941.56;4970231;28;20041;-76
2022/11/27 03:42:01;;;;;;;37.53;19.20;;;;;;;1.52;100.00;152926.22;4967439;28;20133;-77
2022/11/27 03:44:48;;;;;;;43.28;19.52;;;;;;;1.47;100.00;152912.22;4967904;28;20036;-76
2022/11/27 03:47:37;;;;;;;53.00;20.23;;;;;;;1.56;100.00;152935.16;4985310;28;20030;-77
2022/11/27 03:50:20;;;;;;;56.05;23.33;;;;;;;1.63;100.00;152951.75;4986312;28;20034;-74
2022/11/27 03:53:05;;;;;;;56.53;22.95;;;;;;;1.64;100.00;152954.28;4972494;28;20050;-76
2022/11/27 03:55:44;;;;;;;53.33;22.48;;;;;;;1.66;100.00;152960.69;5001252;28;20038;-76
2022/11/27 03:58:59;;;;;;;56.15;22.83;;;;;;;1.77;100.00;152987.44;4985597;28;20216;-77
2022/11/27 04:01:27;;;;;;;63.05;22.92;;;;;;;1.80;100.00;152995.09;4951532;28;20044;-78
2022/11/27 04:03:52;;;;;;;54.45;22.58;;;;;;;1.84;100.00;153005.28;4968168;28;20050;-77
2022/11/27 04:06:18;;;;;;;61.00;25.02;;;;;;;1.82;100.00;153000.19;4969174;28;20034;-78
2022/11/27 04:08:46;;;;;;;68.80;27.58;;;;;;;1.89;100.00;153016.78;4987378;28;20045;-77
2022/11/27 04:11:12;;;;;;;61.60;27.38;;;;;;;1.89;100.00;153018.06;4967784;28;20089;-77
2022/11/27 04:13:37;;;;;;;62.38;25.58;;;;;;;1.99;100.00;153041.03;4956841;28;20056;-76
2022/11/27 04:16:03;;;;;;;58.42;26.92;;;;;;;2.03;100.00;153051.22;4970219;28;20046;-75
2022/11/27 04:18:29;;;;;;;61.50;26.02;;;;;;;2.04;100.00;153055.06;4957648;28;20034;-76
2022/11/27 04:20:54;;;;;;;71.80;27.10;;;;;;;2.01;100.00;153047.38;4988074;28;20805;-78
2022/11/27 04:23:20;;;;;;;61.47;26.75;;;;;;;1.97;100.00;153037.19;4969245;28;20096;-76
2022/11/27 04:25:47;;;;;;;63.33;27.42;;;;;;;1.89;100.00;153018.06;4959922;28;20050;-78
2022/11/27 04:28:12;;;;;;;54.97;25.48;;;;;;;1.91;100.00;153021.91;4970460;28;20045;-77
2022/11/27 04:30:38;;;;;;;58.80;26.73;;;;;;;1.89;100.00;153016.78;5004952;28;20118;-77
2022/11/27 04:33:03;;;;;;;58.47;25.80;;;;;;;1.87;100.00;153011.69;4954244;28;20046;-77
2022/11/27 04:35:29;;;;;;;67.38;27.33;;;;;;;1.81;100.00;152996.38;4970810;28;20042;-78
2022/11/27 04:37:58;;;;;;;62.63;27.88;;;;;;;1.74;100.00;152979.81;4985480;28;20603;-78
2022/11/27 04:40:23;;;;;;;59.92;26.83;;;;;;;1.67;100.00;152961.94;4972833;28;20092;-78
2022/11/27 04:42:49;;;;;;;66.80;28.08;;;;;;;1.61;100.00;152946.66;4971897;28;20501;-75
2022/11/27 04:45:15;;;;;;;55.65;25.95;;;;;;;1.53;100.00;152928.81;4990452;28;20108;-78
2022/11/27 04:47:40;;;;;;;63.35;28.23;;;;;;;1.53;100.00;152928.81;4972307;28;20097;-77
2022/11/27 04:50:06;;;;;;;63.13;26.70;;;;;;;1.50;100.00;152921.13;4972186;28;20488;-76
2022/11/27 04:52:32;;;;;;;63.17;27.95;;;;;;;1.45;100.00;152907.09;4978064;28;20045;-77
2022/11/27 04:54:58;;;;;;;55.38;26.75;;;;;;;1.47;100.00;152912.22;4958231;28;20035;-76
2022/11/27 04:57:23;;;;;;;61.22;27.70;;;;;;;1.51;100.00;152923.72;4973668;28;20049;-77
2022/11/27 04:59:49;;;;;;;66.78;30.25;;;;;;;1.50;100.00;152921.13;4981894;28;20108;-78
2022/11/27 05:02:14;;;;;;;55.72;28.20;;;;;;;1.41;100.00;152896.91;4980555;28;20030;-77
2022/11/27 05:04:40;;;;;;;71.35;31.10;;;;;;;1.40;100.00;152894.41;4984950;28;20037;-76
2022/11/27 05:07:05;;;;;;;70.22;31.23;;;;;;;1.32;100.00;152876.53;4973402;28;20042;-78
2022/11/27 05:09:31;;;;;;;67.03;31.35;;;;;;;1.23;100.00;152853.59;4978184;28;20030;-79
2022/11/27 05:11:57;;;;;;;63.50;29.27;;;;;;;1.22;100.00;152851.00;4992989;28;20093;-79
2022/11/27 05:14:27;;;;;;;65.03;28.83;;;;;;;1.23;100.00;152852.31;4976797;28;20035;-79
2022/11/27 05:16:56;;;;;;;61.15;27.27;;;;;;;1.13;100.00;152828.06;4978316;28;20065;-79
2022/11/27 05:19:23;;;;;;;63.58;28.00;;;;;;;1.04;100.00;152805.16;4994402;28;20040;-79
2022/11/27 05:21:50;;;;;;;64.72;27.00;;;;;;;0.97;100.00;152789.84;5005989;28;20040;-80
2022/11/27 05:24:17;;;;;;;60.58;27.67;;;;;;;0.91;100.00;152773.28;4989327;28;20469;-79
2022/11/27 05:26:43;;;;;;;60.42;29.42;;;;;;;0.93;100.00;152779.66;4993878;28;20113;-80
2022/11/27 05:29:10;;;;;;;58.13;28.30;;;;;;;0.90;100.00;152772.00;4975065;28;20042;-80
2022/11/27 05:31:36;;;;;;;63.22;29.30;;;;;;;0.84;100.00;152756.72;4974512;28;20038;-79
2022/11/27 05:34:02;;;;;;;61.22;28.75;;;;;;;0.86;100.00;152761.81;4976797;28;20088;-80
2022/11/27 05:36:28;;;;;;;66.15;30.80;;;;;;;0.84;100.00;152756.72;4962117;28;20038;-80
2022/11/27 05:38:53;;;;;;;53.03;28.20;;;;;;;0.85;100.00;152757.97;4973381;28;20101;-81
2022/11/27 05:41:20;;;;;;;64.95;29.80;;;;;;;0.83;100.00;152752.88;4974658;28;20053;-80
2022/11/27 05:43:46;;;;;;;67.05;31.67;;;;;;;0.87;100.00;152763.13;4976907;28;20031;-81
2022/11/27 05:46:15;;;;;;;71.28;31.45;;;;;;;0.95;100.00;152783.47;4990315;28;20069;-77
2022/11/27 05:48:41;;;;;;;77.68;32.58;;;;;;;1.02;100.00;152800.03;4976507;28;20497;-79
2022/11/27 05:51:07;;;;;;;74.82;31.65;;;;;;;1.10;100.00;152821.72;4967653;28;20093;-78
2022/11/27 05:53:33;;;;;;;82.35;31.33;;;;;;;1.04;100.00;152806.44;4977186;28;20137;-78
2022/11/27 05:56:06;;;;;;;73.60;33.03;;;;;;;1.05;100.00;152807.69;4976077;28;20584;-81
2022/11/27 05:58:32;;;;;;;75.78;33.15;;;;;;;1.05;100.00;152807.69;4993414;28;20412;-81
2022/11/27 06:00:58;;;;;;;80.97;32.80;;;;;;;1.06;100.00;152811.53;4985377;28;20038;-80
2022/11/27 06:03:25;;;;;;;72.65;31.90;;;;;;;1.05;100.00;152808.94;4959973;28;20030;-80
2022/11/27 06:05:51;;;;;;;75.43;32.35;;;;;;;0.96;100.00;152787.31;4975751;28;20417;-79
2022/11/27 06:08:16;;;;;;;62.17;30.35;;;;;;;0.88;100.00;152766.91;4975348;28;20042;-80
2022/11/27 06:10:42;;;;;;;72.63;31.48;;;;;;;0.77;100.00;152738.84;4976494;28;20044;-80
2022/11/27 06:13:07;;;;;;;72.32;30.02;;;;;;;0.70;100.00;152722.31;4960413;28;20045;-80
2022/11/27 06:15:35;;;;;;;65.57;30.65;;;;;;;0.69;100.00;152718.47;4969174;28;20084;-79
2022/11/27 06:18:00;;;;;;;71.93;30.70;;;;;;;0.68;100.00;152715.91;4976221;28;20049;-80
2022/11/27 06:20:27;;;;;;;74.55;32.42;;;;;;;0.70;100.00;152722.31;4975307;28;20035;-82
2022/11/27 06:22:52;;;;;;;68.00;32.08;;;;;;;0.67;100.00;152714.66;4976788;28;20377;-80
2022/11/27 06:25:18;;;;;;;65.70;30.20;;;;;;;0.62;100.00;152700.63;4976027;28;20103;-79
2022/11/27 06:27:43;;;;;;;79.30;32.55;;;;;;;0.61;100.00;152699.38;4983623;28;20180;-81
2022/11/27 06:30:09;;;;;;;76.90;32.15;;;;;;;0.72;100.00;152727.41;4992927;28;20037;-80
2022/11/27 06:32:35;;;;;;;70.95;32.03;;;;;;;0.69;100.00;152719.75;4975546;28;20038;-81
2022/11/27 06:35:00;;;;;;;72.97;31.38;;;;;;;0.63;100.00;152704.47;4976208;28;20049;-80
2022/11/27 06:37:26;;;;;;;81.90;33.30;;;;;;;0.68;100.00;152717.22;4959080;28;20042;-80
2022/11/27 06:39:52;;;;;;;76.32;32.65;;;;;;;0.67;100.00;152714.66;4973814;28;20043;-83
2022/11/27 06:42:17;;;;;;;86.25;33.60;;;;;;;0.69;100.00;152719.75;4992268;28;20101;-82
2022/11/27 06:44:43;;;;;;;76.28;33.70;;;;;;;0.70;100.00;152722.31;4975667;28;20043;-79
2022/11/27 06:47:08;;;;;;;71.93;31.23;;;;;;;0.67;100.00;152714.66;4978135;28;20552;-79
2022/11/27 06:49:34;;;;;;;68.50;30.27;;;;;;;0.62;100.00;152700.63;4974476;28;20039;-83
2022/11/27 06:52:00;;;;;;;73.47;30.50;;;;;;;0.58;100.00;152693.03;4971518;28;20038;-82
2022/11/27 06:54:26;;;;;;;74.10;31.25;;;;;;;0.60;100.00;152696.81;4984709;28;20034;-79
2022/11/27 06:56:51;;;;;;;75.28;32.67;;;;;;;0.70;100.00;152722.31;4974518;28;20408;-80
2022/11/27 06:59:18;;;;;;;71.75;31.27;;;;;;;0.69;100.00;152718.47;4990499;28;20047;-80
2022/11/27 07:01:44;;;;;;;73.07;31.30;;;;;;;0.71;100.00;152723.56;4986320;28;20129;-80
2022/11/27 07:04:11;;;;;;;69.15;31.15;;;;;;;0.64;100.00;152707.03;4974766;28;20030;-79
2022/11/27 07:06:38;;;;;;;77.95;31.83;;;;;;;0.63;100.00;152703.22;4975767;28;20037;-81
2022/11/27 07:09:04;;;;;;;88.50;33.83;;;;;;;0.67;100.00;152714.66;4963847;28;20038;-81
2022/11/27 07:11:30;;;;;;;85.60;33.60;;;;;;;0.69;100.00;152718.47;4959583;28;20546;-82
2022/11/27 07:13:59;;;;;;;74.05;30.70;;;;;;;0.69;100.00;152719.75;4974351;28;20031;-81
2022/11/27 07:16:27;;;;;;;79.72;30.17;;;;;;;0.54;100.00;152682.78;4983725;28;20584;-80
2022/11/27 07:18:56;;;;;;;64.28;29.88;;;;;;;0.43;100.00;152654.75;4975724;28;20034;-80
2022/11/27 07:21:23;;;;;;;69.85;28.95;;;;;;;0.41;100.00;152648.41;4974669;28;20040;-81
2022/11/27 07:23:48;;;;;;;66.75;29.50;;;;;;;0.38;100.00;152643.31;4960810;28;20030;-81
2022/11/27 07:26:17;;;;;;;68.60;29.58;;;;;;;0.35;100.00;152634.41;4974854;28;20397;-81
2022/11/27 07:28:44;;;;;;;67.90;29.45;;;;;;;0.39;100.00;152644.59;4960154;28;20500;-80
2022/11/27 07:31:18;;;;;;;61.17;27.50;;;;;;;0.45;100.00;152659.84;4969926;28;20126;-80
2022/11/27 07:33:44;;;;;;;67.60;28.65;;;;;;;0.43;100.00;152653.50;4975430;28;20813;-80
2022/11/27 07:36:13;;;;;;;74.93;30.20;;;;;;;0.47;100.00;152663.69;4974519;28;20034;-80
2022/11/27 07:38:39;;;;;;;69.10;28.65;;;;;;;0.52;100.00;152677.69;4975368;28;20034;-80
2022/11/27 07:41:05;;;;;;;64.68;28.85;;;;;;;0.56;100.00;152686.63;4960267;28;20189;-79
2022/11/27 07:43:32;;;;;;;66.22;28.65;;;;;;;0.60;100.00;152696.81;4979160;28;20600;-81
2022/11/27 07:46:01;;;;;;;66.30;29.02;;;;;;;0.64;100.00;152705.72;4982227;28;20042;-79
2022/11/27 07:48:27;;;;;;;58.83;27.90;;;;;;;0.62;100.00;152700.63;4960476;28;20485;-80
2022/11/27 07:50:52;;;;;;;67.88;28.45;;;;;;;0.60;100.00;152695.53;4974811;28;20034;-81
2022/11/27 07:53:18;;;;;;;70.88;29.15;;;;;;;0.67;100.00;152714.66;4977908;28;20518;-81
2022/11/27 07:55:43;;;;;;;66.95;29.23;;;;;;;0.68;100.00;152717.22;4959203;28;20038;-82
2022/11/27 07:58:09;;;;;;;70.38;30.33;;;;;;;0.73;100.00;152729.94;4971119;28;20035;-81
2022/11/27 08:00:35;;;;;;;76.95;32.33;;;;;;;0.81;100.00;152749.09;4969917;28;20046;-79
2022/11/27 08:03:01;;;;;;;80.32;32.70;;;;;;;0.93;100.00;152778.38;4975124;28;20045;-81
2022/11/27 08:05:27;;;;;;;74.53;31.20;;;;;;;0.99;100.00;152793.66;5005238;28;20112;-80
2022/11/27 08:07:53;;;;;;;70.20;31.17;;;;;;;1.04;100.00;152806.44;4971732;28;20038;-81
2022/11/27 08:10:19;;;;;;;73.93;32.15;;;;;;;1.10;100.00;152821.72;4980430;28;20036;-82
2022/11/27 08:12:45;;;;;;;63.15;28.92;;;;;;;1.12;100.00;152826.81;4976107;28;20164;-79
2022/11/27 08:15:11;;;;;;;70.55;30.08;;;;;;;1.13;100.00;152828.06;4975867;28;20327;-79
2022/11/27 08:17:38;;;;;;;60.30;28.73;;;;;;;1.20;100.00;152845.91;4964734;28;20069;-79
2022/11/27 08:20:04;;;;;;;71.38;30.40;;;;;;;1.22;100.00;152851.00;4977685;28;20035;-80
2022/11/27 08:22:30;;;;;;;62.60;28.85;;;;;;;1.27;100.00;152863.78;4992781;28;20030;-79
2022/11/27 08:24:55;;;;;;;59.00;27.48;;;;;;;1.34;100.00;152880.38;4992973;28;20480;-82
2022/11/27 08:27:21;;;;;;;65.28;27.60;;;;;;;1.53;100.00;152928.81;4961529;28;20041;-80
2022/11/27 08:29:47;;;;;;;63.40;27.27;;;;;;;1.54;100.00;152930.06;4959197;28;20031;-80
2022/11/27 08:32:12;;;;;;;67.47;29.23;;;;;;;1.62;100.00;152950.50;4975089;28;20027;-77
2022/11/27 08:34:38;;;;;;;59.85;26.77;;;;;;;1.75;100.00;152983.66;4976004;28;20579;-82
2022/11/27 08:37:05;;;;;;;55.65;26.67;;;;;;;1.91;100.00;153023.16;4966628;28;20515;-80
2022/11/27 08:39:30;;;;;;;59.80;27.92;;;;;;;1.90;100.00;153020.63;4978210;28;20034;-83
2022/11/27 08:41:56;;;;;;;62.78;26.02;;;;;;;1.87;100.00;153012.97;4962835;28;20145;-80
2022/11/27 08:44:21;;;;;;;56.45;25.77;;;;;;;2.01;100.00;153047.38;4992721;28;20045;-80
2022/11/27 08:46:47;;;;;;;53.08;25.65;;;;;;;2.03;100.00;153052.47;4956763;28;20041;-78
2022/11/27 08:49:13;;;;;;;52.88;25.70;;;;;;;1.95;100.00;153032.09;4976009;28;20034;-76
2022/11/27 08:51:39;;;;;;;51.95;24.98;;;;;;;1.98;100.00;153039.75;4957653;28;20026;-80
2022/11/27 08:54:05;;;;;;;51.35;23.38;;;;;;;1.97;100.00;153037.19;4976986;28;20117;-79
2022/11/27 08:56:30;;;;;;;47.55;24.27;;;;;;;1.94;100.00;153030.84;4961648;28;20498;-78
2022/11/27 08:58:56;;;;;;;47.58;24.50;;;;;;;1.88;100.00;153015.50;4992690;28;20120;-79
2022/11/27 09:01:24;;;;;;;48.95;23.40;;;;;;;1.92;100.00;153024.41;4975148;28;20097;-78
2022/11/27 09:03:51;;;;;;;47.47;22.85;;;;;;;1.90;100.00;153019.31;4961108;28;20038;-79
2022/11/27 09:06:20;;;;;;;45.45;22.98;;;;;;;1.95;100.00;153032.09;4973879;28;20074;-78
2022/11/27 09:08:46;;;;;;;45.92;22.27;;;;;;;1.96;100.00;153034.66;4975442;28;20031;-78
2022/11/27 09:11:13;;;;;;;45.25;22.13;;;;;;;1.98;100.00;153039.75;4963035;28;20455;-79
2022/11/27 09:13:39;;;;;;;47.20;23.38;;;;;;;2.00;100.00;153044.84;4957606;28;20022;-78
2022/11/27 09:16:08;;;;;;;50.83;24.27;;;;;;;2.09;100.00;153067.81;4977830;28;20034;-80
2022/11/27 09:18:34;;;;;;;55.35;24.20;;;;;;;2.07;100.00;153062.72;4962676;28;20080;-78
2022/11/27 09:21:02;;;;;;;46.00;23.27;;;;;;;2.12;100.00;153075.44;4976666;28;20034;-77
2022/11/27 09:23:28;;;;;;;48.08;23.13;;;;;;;2.23;100.00;153101.00;4977057;28;20132;-78
2022/11/27 09:26:04;;;;;;;48.88;24.33;;;;;;;2.27;100.00;153112.44;4978766;28;20050;-78
2022/11/27 09:28:34;;;;;;;54.10;23.33;;;;;;;2.29;100.00;153117.53;5006480;28;20122;-77
2022/11/27 09:31:01;;;;;;;42.38;21.88;;;;;;;2.28;100.00;153115.03;4977195;28;20036;-76
2022/11/27 09:33:29;;;;;;;39.63;20.10;;;;;;;2.26;100.00;153109.91;4990739;28;20116;-76
2022/11/27 09:35:55;;;;;;;38.75;20.92;;;;;;;2.31;100.00;153122.66;4992368;28;20046;-75
2022/11/27 09:38:20;;;;;;;33.45;20.80;;;;;;;2.38;100.00;153137.97;4971877;28;20045;-77
2022/11/27 09:40:49;;;;;;;40.03;21.80;;;;;;;2.30;100.00;153120.13;5004446;28;20046;-77
2022/11/27 09:43:17;;;;;;;38.63;21.45;;;;;;;2.32;100.00;153125.22;4973801;28;20030;-76
2022/11/27 09:45:55;;;;;;;41.15;19.95;;;;;;;2.38;100.00;153137.97;4974092;28;21360;-77
2022/11/27 09:48:34;;;;;;;38.83;20.15;;;;;;;2.41;100.00;153146.94;4972685;28;20039;-78
2022/11/27 09:51:04;;;;;;;44.88;22.02;;;;;;;2.42;100.00;153149.44;4973770;28;20480;-77
2022/11/27 09:53:41;;;;;;;41.47;22.35;;;;;;;2.50;100.00;153168.59;4978611;28;20037;-75
2022/11/27 09:56:13;;;;;;;42.53;21.98;;;;;;;2.60;100.00;153192.81;4989423;28;20034;-76
2022/11/27 09:58:54;;;;;;;34.72;19.17;;;;;;;2.72;100.00;153224.72;4966425;28;20586;-75
2022/11/27 10:01:25;;;;;;;34.17;21.13;;;;;;;2.83;100.00;153250.28;4988469;28;20120;-77
2022/11/27 10:03:51;;;;;;;42.53;21.13;;;;;;;2.89;100.00;153265.56;4974390;28;20096;-77
2022/11/27 10:06:27;;;;;;;36.88;20.35;;;;;;;2.90;100.00;153269.41;4987402;28;20114;-77
2022/11/27 10:09:11;;;;;;;45.78;21.08;;;;;;;2.91;100.00;153270.69;4968712;28;20180;-78
2022/11/27 10:12:15;;;;;;;39.05;20.73;;;;;;;2.91;100.00;153270.69;4985912;28;20034;-78
2022/11/27 10:15:02;;;;;;;43.13;22.13;;;;;;;2.91;100.00;153271.94;4987250;28;20045;-77
2022/11/27 10:17:39;;;;;;;39.85;20.83;;;;;;;2.95;100.00;153279.63;4984864;28;20038;-79
2022/11/27 10:20:32;;;;;;;39.53;21.45;;;;;;;3.00;100.00;153292.41;4959033;28;20042;-78
2022/11/27 10:23:04;;;;;;;41.13;20.98;;;;;;;3.06;100.00;153307.69;4994302;28;20034;-77
2022/11/27 10:25:40;;;;;;;33.77;19.43;;;;;;;3.04;100.00;153303.84;4986885;28;20060;-76
2022/11/27 10:28:32;;;;;;;38.97;21.25;;;;;;;3.18;100.00;153337.03;4967007;28;20397;-75
2022/11/27 10:31:09;;;;;;;39.72;20.85;;;;;;;3.19;100.00;153339.63;4988761;28;20046;-75
2022/11/27 10:33:45;;;;;;;34.83;19.83;;;;;;;3.34;100.00;153376.66;4969779;28;20046;-77
2022/11/27 10:36:20;;;;;;;29.88;18.17;;;;;;;3.35;100.00;153380.44;4985885;28;20038;-76
2022/11/27 10:38:47;;;;;;;31.02;17.50;;;;;;;3.38;100.00;153386.84;4972182;28;20759;-76
2022/11/27 10:41:22;;;;;;;31.40;19.23;;;;;;;3.39;100.00;153389.38;5001850;28;20034;-75
2022/11/27 10:43:53;;;;;;;34.83;18.75;;;;;;;3.41;100.00;153395.78;4972047;28;20042;-76
2022/11/27 10:46:25;;;;;;;29.33;18.40;;;;;;;3.52;100.00;153422.56;4986990;28;20053;-76
2022/11/27 10:48:51;;;;;;;30.90;18.13;;;;;;;3.53;100.00;153425.16;4960432;28;20038;-75
2022/11/27 10:51:21;;;;;;;26.10;17.55;;;;;;;3.61;100.00;153444.28;4970371;28;20053;-77
2022/11/27 10:53:51;;;;;;;27.77;17.65;;;;;;;3.63;100.00;153449.41;4968642;28;20049;-76
2022/11/27 10:56:54;;;;;;;26.50;17.23;;;;;;;3.70;100.00;153468.56;5001265;28;20034;-77
2022/11/27 10:59:29;;;;;;;30.38;17.33;;;;;;;3.74;100.00;153476.22;4970746;28;20089;-75
2022/11/27 11:01:57;;;;;;;31.17;18.75;;;;;;;3.81;100.00;153494.13;4986190;28;20034;-76
2022/11/27 11:04:29;;;;;;;31.00;17.90;;;;;;;3.87;100.00;153510.69;4997098;28;20038;-77
2022/11/27 11:06:56;;;;;;;25.98;17.00;;;;;;;3.89;100.00;153515.81;4986519;28;20092;-76
2022/11/27 11:09:27;;;;;;;29.95;17.58;;;;;;;3.96;100.00;153531.16;4987240;28;20053;-77
2022/11/27 11:11:53;;;;;;;28.37;16.40;;;;;;;3.95;100.00;153528.59;4971732;28;20092;-76
2022/11/27 11:14:23;;;;;;;29.75;17.20;;;;;;;3.87;100.00;153509.44;4986812;28;20298;-78
2022/11/27 11:16:50;;;;;;;26.95;17.33;;;;;;;3.88;100.00;153513.28;4971717;28;20038;-76
2022/11/27 11:19:27;;;;;;;27.60;16.17;;;;;;;3.83;100.00;153500.47;4971332;28;20060;-76